Weather at Ajdovščina Airfield

Public forecast

Using degrees Celsius for public forecast. Weather courtesy of forecast.io.

Closest aviation weather report (METAR) to Ajdovščina Airfield

Closest report is Trieste–Friuli Venezia Giulia Airport, 17.7 nm (32.8 km) WSW. Retrieved 2021/01/25 22:20 UTC (9 minutes ago):

LIPQ 252220Z AUTO 04005KT 9999 OVC120 02/01 Q1007

Closest aviation forecast (TAF) to Ajdovščina Airfield

Closest forecast is Trieste–Friuli Venezia Giulia Airport, 17.7 nm (32.8 km) WSW. Retrieved 2021/01/25 18:21 UTC (4 hours ago):

TAF LIPQ 251700Z 2518/2618 VRB05KT 9999 SCT070